| time (UTC) | temp F | wind direction | speed knots | gust knots | rain 1hr in | rain 24hr in | rain mn in | humidity % | barometer mb |
| 20260506044531 | 54 | 226 | 5.2 | 7.0 | 0.00 | 0.00 | 0.00 | 98 | 1010.9 |
| 20260506042531 | 53 | 242 | 4.3 | 5.2 | 0.00 | 0.00 | 0.00 | 98 | 1010.8 |
| 20260506040531 | 53 | 247 | 3.5 | 5.2 | 0.00 | 0.00 | 0.00 | 98 | 1010.6 |
| 20260506034539 | 53 | 231 | 4.3 | 5.2 | 0.00 | 0.00 | 0.00 | 98 | 1010.6 |
| 20260506032531 | 53 | 241 | 3.5 | 5.2 | 0.00 | 0.00 | 0.00 | 98 | 1010.6 |
| 20260506030531 | 54 | 231 | 1.7 | 3.5 | 0.00 | 0.00 | 0.00 | 98 | 1010.6 |
| 20260506024531 | 54 | 235 | 4.3 | 7.0 | 0.00 | 0.00 | 0.00 | 98 | 1010.6 |
| 20260506020531 | 56 | 240 | 3.5 | 5.2 | 0.00 | 0.00 | 0.00 | 98 | 1010.7 |
| 20260506014531 | 57 | 258 | 5.2 | 8.7 | 0.00 | 0.00 | 0.00 | 98 | 1010.8 |
| 20260506012531 | 57 | 256 | 5.2 | 7.0 | 0.00 | 0.00 | 0.00 | 98 | 1010.6 |
| 20260506010531 | 57 | 217 | 4.3 | 7.0 | 0.00 | 0.00 | 0.00 | 98 | 1010.3 |
| 20260506004531 | 57 | 244 | 6.1 | 7.8 | 0.00 | 0.00 | 0.00 | 98 | 1009.8 |
| 20260506002531 | 58 | 238 | 4.3 | 5.2 | 0.00 | 0.00 | 0.00 | 98 | 1009.4 |
| 20260506000532 | 58 | 244 | 5.2 | 7.0 | 0.00 | 0.00 | 0.00 | 98 | 1009.4 |
| 20260505234531 | 55 | 245 | 5.2 | 7.0 | 0.00 | 0.00 | 0.00 | 98 | 1009.3 |
| 20260505232531 | 57 | 263 | 7.0 | 8.7 | 0.00 | 0.00 | 0.00 | 98 | 1007.8 |
| 20260505230531 | 57 | 234 | 6.1 | 7.8 | 0.00 | 0.00 | 0.00 | 98 | 1007.3 |
| 20260505224531 | 57 | 230 | 6.1 | 7.8 | 0.00 | 0.00 | 0.00 | 98 | 1007.2 |
| 20260505222531 | 57 | 248 | 7.0 | 8.7 | 0.00 | 0.00 | 0.00 | 98 | 1006.8 |
| 20260505220531 | 56 | 254 | 7.8 | 12.2 | 0.00 | 0.00 | 0.00 | 98 | 1006.9 |
| 20260505214531 | 57 | 235 | 9.6 | 13.0 | 0.00 | 0.00 | 0.00 | 98 | 1007.1 |
| 20260505212531 | 58 | 221 | 8.7 | 11.3 | 0.00 | 0.00 | 0.00 | 98 | 1007.0 |
| 20260505210531 | 59 | 241 | 10.4 | 16.5 | 0.00 | 0.00 | 0.00 | 98 | 1006.9 |
| 20260505204531 | 59 | 261 | 10.4 | 13.9 | 0.00 | 0.00 | 0.00 | 98 | 1006.9 |
| 20260505202531 | 59 | 236 | 8.7 | 10.4 | 0.00 | 0.00 | 0.00 | 98 | 1007.2 |
| 20260505200532 | 61 | 220 | 7.8 | 11.3 | 0.00 | 0.00 | 0.00 | 98 | 1007.4 |
| 20260505194531 | 62 | 230 | 4.3 | 6.1 | 0.00 | 0.00 | 0.00 | 98 | 1007.8 |
| 20260505192531 | 62 | 240 | 6.1 | 9.6 | 0.00 | 0.00 | 0.00 | 98 | 1008.2 |
| 20260505190533 | 64 | 246 | 6.1 | 10.4 | 0.00 | 0.00 | 0.00 | 98 | 1008.2 |
| 20260505182531 | 64 | 254 | 7.0 | 10.4 | 0.00 | 0.00 | 0.00 | 98 | 1008.4 |
| 20260505180531 | 64 | 234 | 7.8 | 8.7 | 0.00 | 0.00 | 0.00 | 98 | 1008.7 |
| 20260505174531 | 65 | 238 | 7.8 | 11.3 | 0.00 | 0.00 | 0.00 | 98 | 1009.4 |
| 20260505172531 | 63 | 232 | 8.7 | 12.2 | 0.00 | 0.00 | 0.00 | 98 | 1009.1 |
| 20260505170532 | 63 | 231 | 5.2 | 7.8 | 0.00 | 0.00 | 0.00 | 98 | 1009.5 |
| 20260505164531 | 64 | 234 | 6.1 | 8.7 | 0.00 | 0.00 | 0.00 | 98 | 1009.7 |
| 20260505160531 | 67 | 257 | 4.3 | 6.1 | 0.00 | 0.00 | 0.00 | 98 | 1010.2 |
| 20260505152533 | 58 | 246 | 7.0 | 9.6 | 0.00 | 0.00 | 0.00 | 98 | 1010.8 |
| 20260505150531 | 57 | 231 | 4.3 | 7.0 | 0.00 | 0.00 | 0.00 | 98 | 1010.6 |
| 20260505140531 | 59 | 218 | 7.8 | 10.4 | 0.00 | 0.00 | 0.00 | 98 | 1011.0 |
| 20260505124531 | 61 | 219 | 3.5 | 7.0 | 0.00 | 0.00 | 0.00 | 98 | 1010.6 |
| 20260505122531 | 58 | 243 | 4.3 | 6.1 | 0.00 | 0.00 | 0.00 | 98 | 1010.8 |
| 20260505120531 | 57 | 240 | 4.3 | 5.2 | 0.00 | 0.00 | 0.00 | 98 | 1010.9 |
| 20260505114531 | 55 | 253 | 4.3 | 7.8 | 0.00 | 0.00 | 0.00 | 98 | 1011.0 |
| 20260505112532 | 54 | 247 | 5.2 | 5.2 | 0.00 | 0.00 | 0.00 | 98 | 1011.1 |
| 20260505110532 | 52 | 239 | 3.5 | 4.3 | 0.00 | 0.00 | 0.00 | 98 | 1011.1 |
| 20260505094531 | 48 | 243 | 3.5 | 5.2 | 0.00 | 0.00 | 0.00 | 98 | 1010.8 |
| 20260505092531 | 47 | 254 | 1.7 | 2.6 | 0.00 | 0.00 | 0.00 | 98 | 1010.8 |
| 20260505090531 | 47 | 237 | 1.7 | 2.6 | 0.00 | 0.00 | 0.00 | 98 | 1010.9 |
| 20260505084531 | 48 | 251 | 1.7 | 2.6 | 0.00 | 0.00 | 0.00 | 98 | 1010.9 |
| 20260505082531 | 48 | 240 | 0.9 | 1.7 | 0.00 | 0.00 | 0.00 | 98 | 1010.9 |
| 20260505080531 | 48 | 248 | 1.7 | 1.7 | 0.00 | 0.00 | 0.00 | 98 | 1010.9 |
| 20260505074531 | 48 | 0 | 0.0 | 0.0 | 0.00 | 0.00 | 0.00 | 98 | 1010.9 |
| 20260505072531 | 50 | 248 | 0.9 | 1.7 | 0.00 | 0.00 | 0.00 | 98 | 1010.8 |
| 20260505070531 | 51 | 255 | 2.6 | 3.5 | 0.00 | 0.00 | 0.00 | 98 | 1010.6 |
| 20260505064531 | 51 | 250 | 3.5 | 4.3 | 0.00 | 0.00 | 0.00 | 98 | 1010.6 |
| 20260505060532 | 52 | 247 | 2.6 | 2.6 | 0.00 | 0.00 | 0.00 | 98 | 1010.6 |